Time;durP1;ratioP1;P1;durP2;ratioP2;P2;SDS_P1;SDS_P2;PMS_P1;PMS_P2;Temp;Humidity;BMP_temperature;BMP_pressure;BME280_temperature;BME280_humidity;BME280_pressure;Samples;Min_cycle;Max_cycle;Signal;HPM_P1;HPM_P2
2022/01/17 00:00:26;;;;;;;4.30;3.72;;;17.90;55.20;;;;;;5051418;28;20190;-61
2022/01/17 00:02:51;;;;;;;5.20;4.10;;;17.80;55.10;;;;;;5052573;28;20171;-62
2022/01/17 00:05:17;;;;;;;4.65;4.20;;;17.80;55.20;;;;;;5051672;28;20171;-63
2022/01/17 00:07:43;;;;;;;5.07;4.57;;;17.80;55.20;;;;;;5051581;28;20175;-63
2022/01/17 00:10:09;;;;;;;5.07;3.92;;;17.80;55.20;;;;;;5052485;28;20228;-66
2022/01/17 00:12:38;;;;;;;4.65;3.80;;;17.80;55.20;;;;;;5051893;28;20258;-67
2022/01/17 00:15:12;;;;;;;5.45;4.75;;;17.80;55.20;;;;;;5051353;28;20665;-65
2022/01/17 00:17:41;;;;;;;5.63;4.28;;;17.70;55.20;;;;;;5052114;28;20263;-64
2022/01/17 00:20:11;;;;;;;4.55;4.10;;;17.80;55.10;;;;;;5052369;28;20187;-65
2022/01/17 00:22:39;;;;;;;4.30;3.90;;;17.70;55.20;;;;;;5051214;28;20186;-63
2022/01/17 00:25:06;;;;;;;3.80;3.50;;;17.70;55.10;;;;;;5051991;28;20265;-65
2022/01/17 00:27:32;;;;;;;5.10;3.53;;;17.70;55.10;;;;;;5051880;28;20650;-63
2022/01/17 00:29:58;;;;;;;4.57;3.92;;;17.70;55.10;;;;;;5051725;28;20179;-63
2022/01/17 00:32:24;;;;;;;4.57;3.88;;;17.70;55.20;;;;;;5051853;28;20763;-63
2022/01/17 00:34:49;;;;;;;5.07;4.10;;;17.70;55.20;;;;;;5052046;28;20206;-62
2022/01/17 00:37:15;;;;;;;4.95;3.92;;;17.70;55.20;;;;;;5051262;28;20603;-63
2022/01/17 00:39:40;;;;;;;4.82;3.80;;;17.70;55.20;;;;;;5051312;28;20186;-63
2022/01/17 00:42:06;;;;;;;4.18;3.78;;;17.60;55.20;;;;;;5052118;28;20183;-63
2022/01/17 00:44:32;;;;;;;4.25;3.85;;;17.70;55.30;;;;;;5050961;28;20171;-63
2022/01/17 00:46:57;;;;;;;4.38;3.75;;;17.60;55.20;;;;;;5051893;28;20246;-63
2022/01/17 00:49:23;;;;;;;4.30;3.92;;;17.60;55.20;;;;;;5051389;28;20230;-64
2022/01/17 00:51:49;;;;;;;3.75;3.45;;;17.60;55.20;;;;;;5051058;28;20179;-64
2022/01/17 00:54:14;;;;;;;4.07;3.55;;;17.60;55.20;;;;;;5051561;28;20638;-65
2022/01/17 00:56:40;;;;;;;4.47;3.55;;;17.60;55.20;;;;;;5051028;28;20187;-63
2022/01/17 00:59:06;;;;;;;4.05;3.30;;;17.60;55.20;;;;;;5051772;28;20241;-63
2022/01/17 01:01:40;;;;;;;4.32;3.63;;;17.60;55.20;;;;;;5051332;28;20622;-62
2022/01/17 01:04:06;;;;;;;4.50;3.83;;;17.60;55.20;;;;;;5051035;28;20206;-62
2022/01/17 01:06:31;;;;;;;4.10;3.40;;;17.50;55.10;;;;;;5051296;28;20191;-62
2022/01/17 01:08:57;;;;;;;4.05;3.55;;;17.50;55.20;;;;;;5051604;28;20175;-61
2022/01/17 01:11:23;;;;;;;5.13;3.88;;;17.60;55.20;;;;;;5050755;28;20629;-64
2022/01/17 01:13:48;;;;;;;3.80;3.15;;;17.50;55.10;;;;;;5051469;28;20238;-64
2022/01/17 01:19:06;;;;;;;3.90;3.50;;;17.50;55.10;;;;;;5054533;28;20232;-62
2022/01/17 01:29:27;;;;;;;4.22;3.40;;;17.50;55.20;;;;;;5055048;28;20181;-63
2022/01/17 01:32:03;;;;;;;4.80;3.35;;;17.50;55.20;;;;;;5054513;28;20699;-62
2022/01/17 01:34:42;;;;;;;4.05;3.17;;;17.40;55.10;;;;;;5055212;28;20296;-62
2022/01/17 01:37:08;;;;;;;4.78;3.65;;;17.40;55.10;;;;;;5055362;28;20519;-63
2022/01/17 01:39:33;;;;;;;3.80;3.03;;;17.40;55.10;;;;;;5054328;28;20224;-63
2022/01/17 01:41:59;;;;;;;3.47;3.08;;;17.40;55.10;;;;;;5055160;28;20173;-63
2022/01/17 01:44:26;;;;;;;4.13;3.70;;;17.40;55.10;;;;;;5054897;28;20183;-63
2022/01/17 01:46:52;;;;;;;5.43;3.47;;;17.40;55.10;;;;;;5054547;28;20309;-63
2022/01/17 01:49:18;;;;;;;3.83;3.00;;;17.40;55.10;;;;;;5054985;28;20219;-63
2022/01/17 01:51:43;;;;;;;3.35;2.70;;;17.40;55.10;;;;;;5054908;28;20266;-64
2022/01/17 01:54:09;;;;;;;4.90;2.95;;;17.40;55.20;;;;;;5054273;28;20672;-64
2022/01/17 01:56:39;;;;;;;3.17;2.88;;;17.40;55.20;;;;;;5054646;28;20201;-63
2022/01/17 01:59:05;;;;;;;3.03;2.80;;;17.40;55.10;;;;;;5055145;28;20187;-62
2022/01/17 02:01:30;;;;;;;4.55;3.28;;;17.40;55.10;;;;;;5053905;28;20579;-62
2022/01/17 02:03:56;;;;;;;4.93;2.65;;;17.30;55.10;;;;;;5054906;28;20186;-62
2022/01/17 02:06:21;;;;;;;4.32;3.17;;;17.30;55.10;;;;;;5054335;28;20265;-63
2022/01/17 02:08:47;;;;;;;4.25;3.22;;;17.30;55.10;;;;;;5053956;28;20207;-63
2022/01/17 02:11:12;;;;;;;3.00;2.70;;;17.30;55.10;;;;;;5053147;28;20179;-66
2022/01/17 02:13:39;;;;;;;3.30;2.90;;;17.30;55.00;;;;;;5054213;28;20239;-66
2022/01/17 02:16:05;;;;;;;3.10;2.80;;;17.30;55.00;;;;;;5054030;28;20179;-65
2022/01/17 02:18:31;;;;;;;3.13;2.78;;;17.30;55.10;;;;;;5054170;28;20187;-65
2022/01/17 02:23:42;;;;;;;3.10;2.80;;;17.30;55.10;;;;;;5054074;28;20248;-63
2022/01/17 02:26:08;;;;;;;3.75;2.90;;;17.30;55.10;;;;;;5054309;28;20187;-64
2022/01/17 02:28:35;;;;;;;4.40;2.85;;;17.30;55.10;;;;;;5052909;28;20657;-62
2022/01/17 02:31:01;;;;;;;3.63;2.80;;;17.30;55.10;;;;;;5054542;28;20228;-62
2022/01/17 02:33:27;;;;;;;4.22;2.75;;;17.20;55.00;;;;;;5053994;28;20214;-62
2022/01/17 02:35:52;;;;;;;3.10;2.58;;;17.20;55.00;;;;;;5053437;28;20537;-62
2022/01/17 02:38:18;;;;;;;3.95;2.63;;;17.20;55.00;;;;;;5053952;28;20740;-63
2022/01/17 02:40:43;;;;;;;3.95;2.90;;;17.20;55.10;;;;;;5054077;28;20232;-62
2022/01/17 02:43:09;;;;;;;3.63;2.53;;;17.20;55.00;;;;;;5053525;28;20171;-63
2022/01/17 02:46:24;;;;;;;3.50;3.03;;;17.20;55.10;;;;;;5053887;28;20178;-64
2022/01/17 02:48:25;;;;;;;2.95;2.65;;;17.20;55.10;;;;;;5053257;28;20520;-64
2022/01/17 02:50:51;;;;;;;5.05;2.88;;;17.20;55.10;;;;;;5053130;28;20179;-65
2022/01/17 02:53:16;;;;;;;3.10;2.55;;;17.10;55.00;;;;;;5053958;28;20198;-64
2022/01/17 02:55:51;;;;;;;3.72;2.50;;;17.10;55.00;;;;;;5053383;28;20175;-64
2022/01/17 02:58:19;;;;;;;2.72;2.53;;;17.20;55.10;;;;;;5053152;28;20509;-64
2022/01/17 03:00:45;;;;;;;3.00;2.70;;;17.10;55.00;;;;;;5053618;28;20175;-63
2022/01/17 03:03:18;;;;;;;3.95;2.65;;;17.10;55.00;;;;;;5053666;28;20221;-63
2022/01/17 03:05:44;;;;;;;2.83;2.40;;;17.10;55.10;;;;;;5053445;28;20586;-63
2022/01/17 03:08:09;;;;;;;2.67;2.40;;;17.10;55.10;;;;;;5053630;28;20167;-64
2022/01/17 03:10:39;;;;;;;3.08;2.70;;;17.10;55.10;;;;;;5052676;28;20333;-65
2022/01/17 03:13:25;;;;;;;3.45;2.65;;;17.10;55.00;;;;;;5053406;28;20183;-65
2022/01/17 03:15:54;;;;;;;2.50;2.30;;;17.10;55.00;;;;;;5053267;28;20552;-65
2022/01/17 03:18:20;;;;;;;2.65;2.30;;;17.10;55.00;;;;;;5052541;28;20179;-66
2022/01/17 03:20:45;;;;;;;3.50;2.50;;;17.10;55.00;;;;;;5053462;28;20603;-63
2022/01/17 03:23:11;;;;;;;2.75;2.50;;;17.00;55.00;;;;;;5053233;28;20178;-64
2022/01/17 03:25:36;;;;;;;2.50;2.30;;;17.00;55.00;;;;;;5052366;28;20171;-63
2022/01/17 03:28:02;;;;;;;4.15;3.22;;;17.00;55.00;;;;;;5053193;28;20225;-62
2022/01/17 03:30:30;;;;;;;2.53;2.17;;;17.00;54.90;;;;;;5052914;28;20175;-63
2022/01/17 03:32:55;;;;;;;3.08;2.60;;;17.00;55.00;;;;;;5052515;28;20179;-62
2022/01/17 03:35:21;;;;;;;3.25;2.53;;;17.00;55.00;;;;;;5052526;28;20749;-63
2022/01/17 03:37:46;;;;;;;4.50;2.97;;;17.00;55.00;;;;;;5053189;28;20629;-62
2022/01/17 03:40:12;;;;;;;3.05;2.33;;;17.00;55.00;;;;;;5051024;28;20583;-64
2022/01/17 03:42:38;;;;;;;2.95;2.20;;;17.00;55.00;;;;;;5052362;28;20268;-64
2022/01/17 03:45:07;;;;;;;2.58;2.28;;;17.00;54.90;;;;;;5052619;28;20599;-63
2022/01/17 03:47:34;;;;;;;2.75;2.42;;;17.00;54.90;;;;;;5051841;28;20261;-64
2022/01/17 03:50:00;;;;;;;3.67;2.10;;;17.00;55.00;;;;;;5052509;28;20313;-64
2022/01/17 03:52:25;;;;;;;3.58;2.50;;;17.00;55.00;;;;;;5052304;28;20220;-64
2022/01/17 03:54:51;;;;;;;3.10;2.25;;;16.90;54.90;;;;;;5051831;28;20210;-66
2022/01/17 03:57:16;;;;;;;3.17;2.20;;;16.90;54.90;;;;;;5052481;28;20201;-64
2022/01/17 03:59:42;;;;;;;3.63;2.40;;;16.90;55.00;;;;;;5051242;28;20179;-63
2022/01/17 04:02:07;;;;;;;2.97;2.28;;;16.90;54.90;;;;;;5052535;28;20245;-63
2022/01/17 04:04:32;;;;;;;2.28;2.05;;;16.90;55.50;;;;;;5052018;28;20582;-62
2022/01/17 04:06:58;;;;;;;2.55;2.20;;;16.90;54.90;;;;;;5051684;28;20202;-62
2022/01/17 04:09:23;;;;;;;2.80;2.42;;;16.90;55.00;;;;;;5051998;28;20185;-64
2022/01/17 04:11:49;;;;;;;3.30;2.33;;;16.90;55.00;;;;;;5052231;28;20175;-66
2022/01/17 04:14:16;;;;;;;2.97;2.00;;;16.90;54.90;;;;;;5051292;28;20572;-67
2022/01/17 04:16:42;;;;;;;3.65;2.13;;;16.90;54.90;;;;;;5052032;28;20178;-65
2022/01/17 04:19:10;;;;;;;3.10;2.28;;;16.80;54.90;;;;;;5052185;28;20175;-64
2022/01/17 04:21:36;;;;;;;3.30;2.38;;;16.90;55.00;;;;;;5050943;28;20650;-64
2022/01/17 04:24:01;;;;;;;2.70;2.20;;;16.80;54.90;;;;;;5052004;28;20527;-63
2022/01/17 04:26:27;;;;;;;3.08;2.45;;;16.80;54.90;;;;;;5051545;28;20182;-63
2022/01/17 04:28:52;;;;;;;3.00;2.13;;;16.80;54.90;;;;;;5051168;28;20183;-62
2022/01/17 04:31:18;;;;;;;2.92;2.25;;;16.80;54.90;;;;;;5052233;28;20167;-63
2022/01/17 04:33:43;;;;;;;2.97;2.55;;;16.80;54.90;;;;;;5051627;28;20210;-62
2022/01/17 04:36:09;;;;;;;2.75;2.13;;;16.80;54.90;;;;;;5051264;28;20171;-64
2022/01/17 04:38:34;;;;;;;5.15;2.30;;;16.80;54.90;;;;;;5051403;28;20201;-62
2022/01/17 04:41:03;;;;;;;2.35;1.73;;;16.80;54.90;;;;;;5051791;28;20171;-63
2022/01/17 04:46:04;;;;;;;1.95;1.77;;;16.80;54.90;;;;;;5051918;28;20231;-64
2022/01/17 04:48:30;;;;;;;2.85;1.88;;;16.70;54.80;;;;;;5051299;28;20175;-63
2022/01/17 04:50:55;;;;;;;3.13;1.95;;;16.80;54.90;;;;;;5050719;28;20198;-64
2022/01/17 04:53:21;;;;;;;2.35;1.95;;;16.70;54.90;;;;;;5051368;28;20182;-64
2022/01/17 04:55:47;;;;;;;3.95;2.10;;;16.70;54.90;;;;;;5051180;28;20213;-64
2022/01/17 04:58:13;;;;;;;3.08;2.10;;;16.70;54.90;;;;;;5051413;28;20626;-64
2022/01/17 05:00:45;;;;;;;2.70;2.13;;;16.70;54.80;;;;;;5051421;28;20178;-63
2022/01/17 05:03:11;;;;;;;2.25;2.03;;;16.70;54.90;;;;;;5051040;28;20186;-63
2022/01/17 05:05:37;;;;;;;3.80;2.10;;;16.60;54.80;;;;;;5051217;28;20175;-63
2022/01/17 05:08:02;;;;;;;3.60;2.28;;;16.70;54.80;;;;;;5051484;28;20179;-63
2022/01/17 05:10:28;;;;;;;4.38;2.05;;;16.70;54.80;;;;;;5050346;28;20171;-64
2022/01/17 05:12:54;;;;;;;3.20;2.00;;;16.70;54.90;;;;;;5051681;28;20175;-66
2022/01/17 05:15:31;;;;;;;2.60;2.10;;;16.60;54.80;;;;;;5051034;28;20256;-65
2022/01/17 05:20:34;;;;;;;2.60;1.98;;;16.60;54.80;;;;;;5051379;28;20186;-64
2022/01/17 05:23:00;;;;;;;3.17;2.08;;;16.60;54.80;;;;;;5051435;28;20175;-64
2022/01/17 05:25:25;;;;;;;2.58;1.95;;;16.60;54.70;;;;;;5050341;28;20505;-64
2022/01/17 05:27:51;;;;;;;1.98;1.80;;;16.60;54.80;;;;;;5051469;28;20665;-63
2022/01/17 05:30:17;;;;;;;3.67;1.83;;;16.60;54.70;;;;;;5051452;28;20652;-65
2022/01/17 05:32:43;;;;;;;2.38;1.58;;;16.60;54.80;;;;;;5050252;28;20179;-62
2022/01/17 05:35:09;;;;;;;3.70;2.20;;;16.60;54.80;;;;;;5051274;28;20294;-62
2022/01/17 05:37:34;;;;;;;2.67;2.08;;;16.60;54.80;;;;;;5050954;28;20270;-63
2022/01/17 05:40:00;;;;;;;2.97;1.80;;;16.60;54.80;;;;;;5050533;28;20276;-62
2022/01/17 05:42:26;;;;;;;3.17;1.98;;;16.60;54.80;;;;;;5051135;28;20175;-64
2022/01/17 05:44:52;;;;;;;2.10;1.80;;;16.60;54.80;;;;;;5051259;28;20175;-63
2022/01/17 05:47:17;;;;;;;2.58;1.70;;;16.60;54.80;;;;;;5050539;28;20182;-63
2022/01/17 05:49:43;;;;;;;3.22;1.67;;;16.60;54.80;;;;;;5050761;28;20222;-64
2022/01/17 05:52:09;;;;;;;2.05;1.60;;;16.50;55.40;;;;;;5050345;28;20179;-65
2022/01/17 05:54:35;;;;;;;2.90;2.03;;;16.50;54.80;;;;;;5050929;28;20642;-64
2022/01/17 05:57:00;;;;;;;2.72;1.90;;;16.50;54.80;;;;;;5051255;28;20178;-63
2022/01/17 05:59:26;;;;;;;3.63;2.08;;;16.50;54.80;;;;;;5050322;28;20171;-63
2022/01/17 06:01:51;;;;;;;2.90;1.83;;;16.50;54.80;;;;;;5051403;28;20175;-62
2022/01/17 06:04:17;;;;;;;3.75;2.13;;;16.50;54.80;;;;;;5053908;28;20177;-62
2022/01/17 06:06:42;;;;;;;3.90;1.80;;;16.50;54.80;;;;;;5053787;28;20167;-62
2022/01/17 06:09:08;;;;;;;3.67;1.90;;;16.50;54.80;;;;;;5055002;28;20257;-62
2022/01/17 06:11:34;;;;;;;3.00;1.55;;;16.50;54.80;;;;;;5054457;28;20529;-66
2022/01/17 06:13:59;;;;;;;2.58;1.77;;;16.50;54.80;;;;;;5053952;28;20203;-66
2022/01/17 06:16:25;;;;;;;2.65;1.90;;;16.50;54.80;;;;;;5054404;28;20250;-65
2022/01/17 06:18:51;;;;;;;2.90;1.80;;;16.40;54.80;;;;;;5054831;28;20179;-64
2022/01/17 06:21:16;;;;;;;3.42;1.67;;;16.50;54.80;;;;;;5053904;28;20179;-64
2022/01/17 06:23:42;;;;;;;3.97;1.73;;;16.50;54.80;;;;;;5054239;28;20179;-63
2022/01/17 06:26:07;;;;;;;1.77;1.55;;;16.40;54.80;;;;;;5054338;28;20634;-64
2022/01/17 06:28:33;;;;;;;3.63;1.77;;;16.40;54.80;;;;;;5053454;28;20179;-62
2022/01/17 06:30:58;;;;;;;4.00;1.80;;;16.40;54.80;;;;;;5054344;28;20179;-62
2022/01/17 06:33:24;;;;;;;3.45;2.03;;;16.40;54.80;;;;;;5053805;28;20171;-63
2022/01/17 06:35:50;;;;;;;2.75;1.90;;;16.40;54.70;;;;;;5053436;28;20179;-62
2022/01/17 06:38:16;;;;;;;3.08;1.83;;;16.40;54.70;;;;;;5054077;28;20278;-63
2022/01/17 06:40:41;;;;;;;2.50;1.50;;;16.40;54.80;;;;;;5053841;28;20266;-62
2022/01/17 06:43:08;;;;;;;3.40;2.00;;;16.40;54.80;;;;;;5053444;28;20163;-63
2022/01/17 06:45:34;;;;;;;2.78;1.70;;;16.40;54.90;;;;;;5053734;28;20187;-64
2022/01/17 06:48:01;;;;;;;2.13;1.85;;;16.40;54.80;;;;;;5053881;28;20254;-63
2022/01/17 06:50:26;;;;;;;2.97;1.70;;;16.30;54.80;;;;;;5052679;28;20230;-64
2022/01/17 06:52:52;;;;;;;2.47;1.67;;;16.40;54.80;;;;;;5053951;28;20182;-63
2022/01/17 06:55:17;;;;;;;3.67;1.92;;;16.30;54.80;;;;;;5054124;28;20214;-63
2022/01/17 06:57:43;;;;;;;3.33;2.03;;;16.30;54.80;;;;;;5052799;28;20172;-63
2022/01/17 07:00:09;;;;;;;1.73;1.50;;;16.30;55.00;;;;;;5053813;28;20182;-62
2022/01/17 07:02:35;;;;;;;2.78;2.03;;;16.30;54.90;;;;;;5052633;28;20179;-60
2022/01/17 07:05:00;;;;;;;3.03;1.80;;;16.30;54.80;;;;;;5053485;28;20690;-61
2022/01/17 07:07:26;;;;;;;3.17;1.67;;;16.30;54.80;;;;;;5053431;28;20172;-62
2022/01/17 07:09:51;;;;;;;2.65;1.77;;;16.30;54.80;;;;;;5052872;28;20175;-64
2022/01/17 07:12:17;;;;;;;3.10;1.88;;;16.30;54.90;;;;;;5053696;28;20316;-65
2022/01/17 07:14:42;;;;;;;2.85;1.92;;;16.30;54.90;;;;;;5052714;28;20546;-65
2022/01/17 07:17:11;;;;;;;2.30;1.80;;;16.30;54.90;;;;;;5052664;28;20174;-64
2022/01/17 07:19:37;;;;;;;2.58;1.55;;;16.30;54.80;;;;;;5052929;28;20661;-63
2022/01/17 07:22:06;;;;;;;2.95;2.20;;;16.20;54.80;;;;;;5053383;28;20211;-64
2022/01/17 07:24:31;;;;;;;2.10;1.80;;;16.20;54.80;;;;;;5052275;28;20528;-63
2022/01/17 07:26:57;;;;;;;2.10;1.70;;;16.30;54.90;;;;;;5053297;28;20644;-63
2022/01/17 07:29:24;;;;;;;3.78;1.90;;;16.30;54.90;;;;;;5052622;28;20179;-63
2022/01/17 07:31:49;;;;;;;3.22;1.80;;;16.20;54.80;;;;;;5052274;28;20175;-62
2022/01/17 07:34:15;;;;;;;4.05;2.08;;;16.20;54.80;;;;;;5052758;28;20215;-63
2022/01/17 07:36:40;;;;;;;2.25;1.30;;;16.30;54.90;;;;;;5052810;28;20194;-61
2022/01/17 07:39:06;;;;;;;3.63;1.83;;;16.30;54.90;;;;;;5052123;28;20179;-62
2022/01/17 07:41:31;;;;;;;4.05;1.77;;;16.40;54.70;;;;;;5052506;28;20514;-63
2022/01/17 07:43:58;;;;;;;2.72;1.52;;;16.40;54.70;;;;;;5052722;28;20182;-62
2022/01/17 07:47:06;;;;;;;3.90;1.70;;;16.50;54.80;;;;;;5051811;28;20174;-64
2022/01/17 07:49:14;;;;;;;3.20;2.17;;;16.60;54.80;;;;;;5049387;28;20219;-63
2022/01/17 07:51:41;;;;;;;2.22;1.60;;;16.80;54.70;;;;;;5051780;28;20179;-63
2022/01/17 07:54:08;;;;;;;1.85;1.50;;;17.00;54.40;;;;;;5052610;28;20202;-64
2022/01/17 07:56:34;;;;;;;3.05;1.70;;;17.20;54.10;;;;;;5052178;28;20673;-65
2022/01/17 07:59:00;;;;;;;1.83;1.42;;;17.40;53.80;;;;;;5051582;28;20214;-71
2022/01/17 08:01:25;;;;;;;2.03;1.50;;;17.50;53.70;;;;;;5051794;28;20261;-73
2022/01/17 08:03:54;;;;;;;2.20;1.70;;;17.70;53.60;;;;;;5052549;28;20171;-73
2022/01/17 08:06:19;;;;;;;4.03;2.10;;;17.60;53.10;;;;;;5051344;28;20183;-65
2022/01/17 08:08:45;;;;;;;4.13;2.05;;;18.00;53.00;;;;;;5052416;28;20502;-73
2022/01/17 08:11:10;;;;;;;4.20;1.70;;;18.20;53.30;;;;;;5052092;28;20193;-74
2022/01/17 08:13:36;;;;;;;2.08;1.48;;;18.40;53.00;;;;;;5050799;28;20650;-73
2022/01/17 08:16:02;;;;;;;3.75;1.85;;;18.40;53.00;;;;;;5051937;28;20182;-72
2022/01/17 08:18:28;;;;;;;2.70;1.88;;;18.30;53.10;;;;;;5051858;28;20178;-70
2022/01/17 08:20:54;;;;;;;3.28;1.60;;;18.40;53.20;;;;;;5051412;28;20171;-70
2022/01/17 08:23:19;;;;;;;5.10;1.75;;;18.40;53.20;;;;;;5051673;28;20198;-72
2022/01/17 08:25:45;;;;;;;3.40;1.48;;;18.30;53.90;;;;;;5051423;28;20211;-73
2022/01/17 08:28:10;;;;;;;3.83;2.03;;;18.30;53.40;;;;;;5051178;28;20198;-74
2022/01/17 08:30:36;;;;;;;2.75;1.70;;;18.30;53.40;;;;;;5051679;28;20171;-72
2022/01/17 08:33:01;;;;;;;2.33;1.70;;;18.30;53.40;;;;;;5052218;28;20576;-66
2022/01/17 08:35:27;;;;;;;3.03;2.10;;;18.30;53.50;;;;;;5051019;28;20233;-71
2022/01/17 08:37:52;;;;;;;3.15;1.95;;;18.40;53.80;;;;;;5052106;28;20626;-70
2022/01/17 08:40:18;;;;;;;3.30;1.80;;;18.40;53.60;;;;;;5051792;28;20243;-71
2022/01/17 08:42:44;;;;;;;4.95;1.70;;;18.40;53.60;;;;;;5051066;28;20172;-70
2022/01/17 08:45:10;;;;;;;3.33;1.92;;;18.40;53.60;;;;;;5051723;28;20183;-69
2022/01/17 08:47:36;;;;;;;4.22;1.60;;;18.40;53.80;;;;;;5051572;28;20198;-74
2022/01/17 08:50:03;;;;;;;4.97;2.35;;;18.40;53.80;;;;;;5050832;28;20595;-70
2022/01/17 08:52:28;;;;;;;2.85;2.00;;;18.40;53.90;;;;;;5051463;28;20262;-69
2022/01/17 08:54:54;;;;;;;3.75;1.70;;;18.30;53.90;;;;;;5051198;28;20577;-70
2022/01/17 08:57:19;;;;;;;3.53;1.77;;;18.20;53.90;;;;;;5051176;28;20250;-70
2022/01/17 08:59:45;;;;;;;3.58;2.45;;;18.20;54.00;;;;;;5051540;28;20657;-70
2022/01/17 09:02:11;;;;;;;3.63;1.92;;;18.10;54.10;;;;;;5050886;28;20179;-71
2022/01/17 09:04:40;;;;;;;2.70;1.73;;;18.00;54.20;;;;;;5051275;28;20266;-71
2022/01/17 09:07:08;;;;;;;2.15;1.85;;;18.00;54.20;;;;;;5051704;28;20262;-69
2022/01/17 09:09:33;;;;;;;2.72;1.60;;;18.00;54.20;;;;;;5050413;28;20190;-69
2022/01/17 09:11:59;;;;;;;3.90;1.90;;;17.90;54.30;;;;;;5051406;28;20183;-68
2022/01/17 09:14:24;;;;;;;3.40;1.80;;;18.00;54.20;;;;;;5050994;28;20203;-69
2022/01/17 09:16:50;;;;;;;3.08;1.85;;;18.10;54.20;;;;;;5050771;28;20583;-69
2022/01/17 09:19:15;;;;;;;3.00;1.95;;;18.00;54.10;;;;;;5051552;28;20182;-68
2022/01/17 09:21:41;;;;;;;2.40;1.98;;;18.00;54.10;;;;;;5051146;28;20565;-69
2022/01/17 09:24:07;;;;;;;2.60;1.80;;;18.10;54.00;;;;;;5050628;28;20281;-68
2022/01/17 09:26:32;;;;;;;2.88;2.00;;;18.10;54.00;;;;;;5051089;28;20182;-69
2022/01/17 09:28:58;;;;;;;2.85;2.00;;;18.10;53.90;;;;;;5051194;28;20207;-70
2022/01/17 09:31:23;;;;;;;2.97;1.73;;;18.10;53.80;;;;;;5050105;28;20535;-70
2022/01/17 09:33:49;;;;;;;3.25;1.85;;;18.20;53.80;;;;;;5051245;28;20209;-71
2022/01/17 09:36:14;;;;;;;2.67;1.77;;;18.20;53.70;;;;;;5051170;28;20163;-70
2022/01/17 09:38:40;;;;;;;2.25;1.58;;;18.30;53.70;;;;;;5052091;28;20263;-70
2022/01/17 09:41:06;;;;;;;2.58;1.88;;;18.20;53.60;;;;;;5055006;28;20190;-70
2022/01/17 09:43:31;;;;;;;4.68;1.95;;;18.10;53.70;;;;;;5054648;28;20267;-70
2022/01/17 09:45:57;;;;;;;4.38;2.00;;;18.10;53.80;;;;;;5054249;28;20195;-69
2022/01/17 09:48:33;;;;;;;2.45;1.60;;;18.00;53.80;;;;;;5054695;28;20543;-69
2022/01/17 09:51:05;;;;;;;2.50;1.60;;;17.90;53.90;;;;;;5054987;28;20186;-69
2022/01/17 09:53:34;;;;;;;2.28;1.60;;;17.90;54.10;;;;;;5052694;28;20228;-69
2022/01/17 09:56:03;;;;;;;3.10;1.77;;;17.90;54.10;;;;;;5054743;28;20237;-68
2022/01/17 09:58:28;;;;;;;2.70;1.75;;;17.90;54.10;;;;;;5052745;28;20254;-68
2022/01/17 10:00:54;;;;;;;3.60;1.80;;;18.00;54.10;;;;;;5054882;28;20258;-69
2022/01/17 10:03:21;;;;;;;2.00;1.40;;;18.00;54.10;;;;;;5054381;28;20209;-68
2022/01/17 10:05:47;;;;;;;2.83;1.73;;;18.00;54.10;;;;;;5053963;28;20256;-69
2022/01/17 10:08:15;;;;;;;2.83;1.80;;;18.00;54.70;;;;;;5054543;28;20513;-69
2022/01/17 10:10:44;;;;;;;2.20;1.80;;;18.00;54.00;;;;;;5052308;28;20519;-68
2022/01/17 10:13:37;;;;;;;4.05;2.22;;;18.00;53.90;;;;;;5054087;28;20171;-68
2022/01/17 10:16:12;;;;;;;2.63;1.60;;;18.00;53.90;;;;;;5053964;28;20197;-68
2022/01/17 10:18:45;;;;;;;1.95;1.60;;;18.00;54.00;;;;;;5054082;28;20622;-67
2022/01/17 10:21:19;;;;;;;2.95;1.50;;;17.90;54.00;;;;;;5053649;28;20183;-67
2022/01/17 10:29:36;;;;;;;3.13;1.73;;;17.80;54.20;;;;;;5054308;28;20202;-69
2022/01/17 10:34:55;;;;;;;2.42;2.10;;;17.90;54.20;;;;;;5053329;28;20213;-69
2022/01/17 10:37:26;;;;;;;3.15;1.70;;;17.90;54.10;;;;;;5053834;28;20175;-68
2022/01/17 10:40:05;;;;;;;3.53;1.65;;;18.00;54.10;;;;;;5053998;28;20248;-68
2022/01/17 10:42:41;;;;;;;4.03;1.98;;;18.00;54.00;;;;;;5052999;28;20217;-68
2022/01/17 10:45:16;;;;;;;1.90;1.60;;;18.00;54.00;;;;;;5053903;28;20175;-69
2022/01/17 10:47:45;;;;;;;3.70;1.70;;;18.00;53.90;;;;;;5052966;28;20177;-69
2022/01/17 10:50:32;;;;;;;4.30;2.13;;;17.90;53.90;;;;;;5052905;28;20748;-68
2022/01/17 10:53:00;;;;;;;3.42;1.80;;;17.90;54.10;;;;;;5053625;28;20176;-68
2022/01/17 10:55:27;;;;;;;2.72;1.80;;;17.80;54.10;;;;;;5052443;28;20686;-68
2022/01/17 10:57:55;;;;;;;3.08;1.75;;;17.90;54.20;;;;;;5053871;28;20241;-68
2022/01/17 11:00:22;;;;;;;2.17;1.80;;;17.90;54.30;;;;;;5053288;28;20179;-68
2022/01/17 11:02:53;;;;;;;2.80;1.60;;;17.90;54.30;;;;;;5052818;28;20179;-69
2022/01/17 11:05:21;;;;;;;2.88;1.60;;;17.90;54.20;;;;;;5053440;28;20186;-69
2022/01/17 11:07:48;;;;;;;2.40;1.60;;;17.90;54.20;;;;;;5053649;28;20183;-77
2022/01/17 11:10:25;;;;;;;4.07;1.80;;;18.00;54.20;;;;;;5053081;28;20183;-73
2022/01/17 11:12:51;;;;;;;2.45;1.75;;;17.90;54.20;;;;;;5052992;28;20179;-66
2022/01/17 11:15:17;;;;;;;3.05;1.73;;;17.90;54.30;;;;;;5053139;28;20284;-65
2022/01/17 11:17:50;;;;;;;4.13;1.83;;;17.80;54.30;;;;;;5051204;28;20183;-66
2022/01/17 11:20:17;;;;;;;3.00;1.70;;;17.80;54.50;;;;;;5053464;28;20187;-66
2022/01/17 11:22:44;;;;;;;3.38;1.80;;;17.80;54.60;;;;;;5051743;28;20175;-67
2022/01/17 11:25:14;;;;;;;2.28;1.45;;;17.80;54.70;;;;;;5052453;28;20233;-67
2022/01/17 11:27:40;;;;;;;3.78;1.85;;;17.80;54.70;;;;;;5049541;28;20214;-68
2022/01/17 11:30:06;;;;;;;5.53;1.90;;;17.90;54.80;;;;;;5051489;28;20290;-68
2022/01/17 11:32:32;;;;;;;3.78;1.85;;;17.90;54.80;;;;;;5051971;28;20270;-68
2022/01/17 11:34:58;;;;;;;4.70;1.88;;;17.90;54.70;;;;;;5051714;28;20207;-69
2022/01/17 11:37:24;;;;;;;2.55;1.48;;;17.90;54.70;;;;;;5051107;28;20720;-67
2022/01/17 11:39:52;;;;;;;3.28;1.80;;;17.90;54.70;;;;;;5051383;28;20240;-68
2022/01/17 11:42:37;;;;;;;4.50;1.90;;;17.90;54.70;;;;;;5052597;28;20248;-68
2022/01/17 11:45:25;;;;;;;4.70;1.88;;;17.90;54.90;;;;;;5052284;28;20274;-66
2022/01/17 11:47:51;;;;;;;4.63;2.00;;;17.80;55.00;;;;;;5052904;28;20693;-67
2022/01/17 11:53:10;;;;;;;4.55;1.80;;;17.80;55.40;;;;;;5052299;28;20548;-64
2022/01/17 11:55:39;;;;;;;3.85;1.98;;;17.80;55.50;;;;;;5052642;28;20211;-64
2022/01/17 11:58:29;;;;;;;5.30;2.17;;;17.80;55.50;;;;;;5051914;28;20207;-63
2022/01/17 12:00:58;;;;;;;3.72;1.60;;;17.80;55.60;;;;;;5051584;28;20649;-67
2022/01/17 12:03:45;;;;;;;3.05;1.55;;;17.80;55.60;;;;;;5052434;28;20182;-68
2022/01/17 12:06:22;;;;;;;2.00;1.55;;;17.80;55.60;;;;;;5051758;28;20282;-74
2022/01/17 12:08:49;;;;;;;5.25;2.10;;;17.80;55.50;;;;;;5052785;28;20200;-67
2022/01/17 12:11:28;;;;;;;2.33;1.55;;;17.80;55.50;;;;;;5052393;28;20198;-67
2022/01/17 12:13:59;;;;;;;4.03;1.85;;;17.70;55.50;;;;;;5052132;28;20240;-67
2022/01/17 12:16:27;;;;;;;5.75;2.80;;;17.70;55.50;;;;;;5052384;28;20183;-66
2022/01/17 12:19:03;;;;;;;4.75;1.90;;;17.70;55.60;;;;;;5052541;28;20254;-66
2022/01/17 12:22:03;;;;;;;5.05;1.67;;;17.70;55.60;;;;;;5052480;28;20215;-66
2022/01/17 12:24:40;;;;;;;3.70;1.65;;;17.80;55.70;;;;;;5053076;28;20186;-67
2022/01/17 12:27:13;;;;;;;7.53;2.15;;;17.80;55.70;;;;;;5052019;28;20261;-66
2022/01/17 12:29:52;;;;;;;4.70;1.63;;;17.80;55.60;;;;;;5052226;28;20348;-67
2022/01/17 12:32:24;;;;;;;5.28;1.83;;;17.80;55.60;;;;;;5052036;28;20179;-63
2022/01/17 12:34:56;;;;;;;2.92;1.67;;;17.80;55.60;;;;;;5051526;28;20542;-63
2022/01/17 12:37:47;;;;;;;4.07;1.80;;;17.80;55.60;;;;;;5051450;28;20171;-66
2022/01/17 12:40:13;;;;;;;5.10;2.05;;;17.80;55.60;;;;;;5050929;28;20183;-67
2022/01/17 12:42:48;;;;;;;4.30;2.15;;;17.80;55.70;;;;;;5050881;28;20205;-66
2022/01/17 12:45:21;;;;;;;3.38;1.85;;;17.80;55.70;;;;;;5060343;28;20551;-67
2022/01/17 12:47:47;;;;;;;4.75;1.70;;;17.80;55.60;;;;;;5063098;28;20182;-67
2022/01/17 12:50:12;;;;;;;2.80;1.73;;;17.80;55.60;;;;;;5061344;28;20277;-66
2022/01/17 12:52:38;;;;;;;6.63;2.00;;;17.80;55.60;;;;;;5068008;28;20185;-67
2022/01/17 12:55:04;;;;;;;4.10;1.67;;;17.80;56.30;;;;;;5070603;28;20202;-67
2022/01/17 12:57:29;;;;;;;5.65;2.10;;;17.80;55.60;;;;;;5071363;28;20580;-66
2022/01/17 12:59:55;;;;;;;5.15;1.77;;;17.80;55.60;;;;;;5064927;28;20633;-67
2022/01/17 13:02:20;;;;;;;4.03;1.75;;;17.80;55.50;;;;;;5049220;28;20320;-67
2022/01/17 13:04:48;;;;;;;4.65;1.88;;;17.80;55.50;;;;;;5051421;28;20175;-66
2022/01/17 13:07:14;;;;;;;3.42;1.95;;;17.70;55.50;;;;;;5051563;28;20167;-66
2022/01/17 13:09:40;;;;;;;4.38;1.60;;;17.70;55.50;;;;;;5049895;28;20211;-66
2022/01/17 13:12:07;;;;;;;6.00;2.22;;;17.70;56.10;;;;;;5052320;28;20174;-66
2022/01/17 13:14:33;;;;;;;2.83;1.73;;;17.70;55.60;;;;;;5055105;28;20211;-66
2022/01/17 13:16:58;;;;;;;6.18;1.88;;;17.70;55.60;;;;;;5061267;28;20252;-67
2022/01/17 13:19:24;;;;;;;4.50;1.80;;;17.70;55.60;;;;;;5075010;28;20171;-66